sensor_id;sensor_type;location;lat;lon;timestamp;pressure;altitude;pressure_sealevel;temperature;humidity
58239;BME280;44037;55.638;37.356;2023-05-31T00:01:34;98811.75;;;11.99;98.09
58239;BME280;44037;55.638;37.356;2023-05-31T00:04:02;98811.75;;;11.97;96.51
58239;BME280;44037;55.638;37.356;2023-05-31T00:06:30;98825.63;;;12.00;98.67
58239;BME280;44037;55.638;37.356;2023-05-31T00:08:57;98824.72;;;11.99;98.22
58239;BME280;44037;55.638;37.356;2023-05-31T00:11:24;98835.13;;;11.97;98.63
58239;BME280;44037;55.638;37.356;2023-05-31T00:13:52;98828.22;;;11.93;98.35
58239;BME280;44037;55.638;37.356;2023-05-31T00:16:19;98828.25;;;11.92;99.68
58239;BME280;44037;55.638;37.356;2023-05-31T00:18:46;98830.00;;;11.87;98.97
58239;BME280;44037;55.638;37.356;2023-05-31T00:21:14;98826.59;;;11.80;99.95
58239;BME280;44037;55.638;37.356;2023-05-31T00:23:43;98831.00;;;11.73;100.00
58239;BME280;44037;55.638;37.356;2023-05-31T00:26:10;98825.91;;;11.65;100.00
58239;BME280;44037;55.638;37.356;2023-05-31T00:28:37;98838.88;;;11.61;100.00
58239;BME280;44037;55.638;37.356;2023-05-31T00:31:05;98835.44;;;11.57;100.00
58239;BME280;44037;55.638;37.356;2023-05-31T00:33:32;98843.22;;;11.57;100.00
58239;BME280;44037;55.638;37.356;2023-05-31T00:35:59;98830.28;;;11.56;100.00
58239;BME280;44037;55.638;37.356;2023-05-31T00:38:26;98828.56;;;11.53;100.00
58239;BME280;44037;55.638;37.356;2023-05-31T00:40:55;98827.75;;;11.48;100.00
58239;BME280;44037;55.638;37.356;2023-05-31T00:43:22;98814.78;;;11.48;100.00
58239;BME280;44037;55.638;37.356;2023-05-31T00:45:50;98822.59;;;11.46;100.00
58239;BME280;44037;55.638;37.356;2023-05-31T00:48:17;98824.31;;;11.43;100.00
58239;BME280;44037;55.638;37.356;2023-05-31T00:50:45;98828.66;;;11.41;100.00
58239;BME280;44037;55.638;37.356;2023-05-31T00:53:12;98824.34;;;11.38;100.00
58239;BME280;44037;55.638;37.356;2023-05-31T00:55:39;98822.66;;;11.34;100.00
58239;BME280;44037;55.638;37.356;2023-05-31T00:58:08;98815.72;;;11.36;100.00
58239;BME280;44037;55.638;37.356;2023-05-31T01:00:36;98827.84;;;11.34;100.00
58239;BME280;44037;55.638;37.356;2023-05-31T01:03:03;98830.47;;;11.31;100.00
58239;BME280;44037;55.638;37.356;2023-05-31T01:05:34;98835.63;;;11.32;100.00
58239;BME280;44037;55.638;37.356;2023-05-31T01:08:02;98835.63;;;11.32;100.00
58239;BME280;44037;55.638;37.356;2023-05-31T01:10:29;98825.28;;;11.34;100.00
58239;BME280;44037;55.638;37.356;2023-05-31T01:13:05;98827.81;;;11.37;100.00
58239;BME280;44037;55.638;37.356;2023-05-31T01:15:39;98823.47;;;11.41;100.00
58239;BME280;44037;55.638;37.356;2023-05-31T01:18:13;98826.91;;;11.46;100.00
58239;BME280;44037;55.638;37.356;2023-05-31T01:20:45;98817.34;;;11.49;100.00
58239;BME280;44037;55.638;37.356;2023-05-31T01:23:32;98825.03;;;11.62;100.00
58239;BME280;44037;55.638;37.356;2023-05-31T01:28:55;98823.16;;;11.79;100.00
58239;BME280;44037;55.638;37.356;2023-05-31T01:31:27;98817.03;;;11.87;98.60
58239;BME280;44037;55.638;37.356;2023-05-31T01:33:57;98816.16;;;11.89;98.25
58239;BME280;44037;55.638;37.356;2023-05-31T01:36:25;98811.81;;;11.93;97.91
58239;BME280;44037;55.638;37.356;2023-05-31T01:38:52;98824.75;;;11.96;97.44
58239;BME280;44037;55.638;37.356;2023-05-31T01:41:20;98815.25;;;11.95;96.97
58239;BME280;44037;55.638;37.356;2023-05-31T01:43:49;98820.44;;;11.95;96.77
58239;BME280;44037;55.638;37.356;2023-05-31T01:46:18;98821.28;;;12.00;96.91
58239;BME280;44037;55.638;37.356;2023-05-31T01:48:46;98823.75;;;12.12;97.20
58239;BME280;44037;55.638;37.356;2023-05-31T01:51:14;98819.22;;;12.32;96.99
58239;BME280;44037;55.638;37.356;2023-05-31T01:53:42;98815.47;;;12.56;96.41
58239;BME280;44037;55.638;37.356;2023-05-31T01:56:10;98807.50;;;12.71;93.58
58239;BME280;44037;55.638;37.356;2023-05-31T01:58:40;98808.31;;;12.73;92.71
58239;BME280;44037;55.638;37.356;2023-05-31T02:01:10;98814.44;;;12.72;91.96
58239;BME280;44037;55.638;37.356;2023-05-31T02:03:40;98820.50;;;12.70;92.00
58239;BME280;44037;55.638;37.356;2023-05-31T02:06:07;98818.78;;;12.69;91.84
58239;BME280;44037;55.638;37.356;2023-05-31T02:08:38;98818.59;;;12.84;90.95
58239;BME280;44037;55.638;37.356;2023-05-31T02:11:06;98815.78;;;12.98;90.04
58239;BME280;44037;55.638;37.356;2023-05-31T02:13:33;98816.41;;;13.16;90.40
58239;BME280;44037;55.638;37.356;2023-05-31T02:16:01;98820.53;;;13.31;87.30
58239;BME280;44037;55.638;37.356;2023-05-31T02:18:29;98817.81;;;13.39;86.63
58239;BME280;44037;55.638;37.356;2023-05-31T02:20:58;98820.97;;;13.61;86.65
58239;BME280;44037;55.638;37.356;2023-05-31T02:23:25;98822.97;;;13.96;86.74
58239;BME280;44037;55.638;37.356;2023-05-31T02:25:53;98808.47;;;14.30;83.76
58239;BME280;44037;55.638;37.356;2023-05-31T02:28:21;98813.47;;;14.42;82.12
58239;BME280;44037;55.638;37.356;2023-05-31T02:30:55;98813.47;;;14.41;80.33
58239;BME280;44037;55.638;37.356;2023-05-31T02:33:22;98805.94;;;14.27;79.67
58239;BME280;44037;55.638;37.356;2023-05-31T02:35:50;98827.06;;;14.11;80.82
58239;BME280;44037;55.638;37.356;2023-05-31T02:38:19;98826.44;;;13.98;81.22
58239;BME280;44037;55.638;37.356;2023-05-31T02:40:46;98836.88;;;13.95;81.63
58239;BME280;44037;55.638;37.356;2023-05-31T02:43:14;98848.41;;;13.82;81.09
58239;BME280;44037;55.638;37.356;2023-05-31T02:45:41;98839.09;;;13.67;82.42
58239;BME280;44037;55.638;37.356;2023-05-31T02:48:09;98840.06;;;13.60;83.45
58239;BME280;44037;55.638;37.356;2023-05-31T02:50:36;98843.56;;;13.60;84.20
58239;BME280;44037;55.638;37.356;2023-05-31T02:53:03;98850.44;;;13.61;84.16
58239;BME280;44037;55.638;37.356;2023-05-31T02:55:32;98860.03;;;13.59;84.45
58239;BME280;44037;55.638;37.356;2023-05-31T02:57:59;98851.34;;;13.60;83.96
58239;BME280;44037;55.638;37.356;2023-05-31T03:00:27;98846.19;;;13.57;83.92
58239;BME280;44037;55.638;37.356;2023-05-31T03:02:54;98836.75;;;13.50;84.24
58239;BME280;44037;55.638;37.356;2023-05-31T03:05:21;98844.66;;;13.44;85.04
58239;BME280;44037;55.638;37.356;2023-05-31T03:07:49;98850.88;;;13.32;85.43
58239;BME280;44037;55.638;37.356;2023-05-31T03:10:16;98850.09;;;13.25;87.47
58239;BME280;44037;55.638;37.356;2023-05-31T03:12:45;98860.50;;;13.25;87.85
58239;BME280;44037;55.638;37.356;2023-05-31T03:15:12;98856.13;;;13.27;88.35
58239;BME280;44037;55.638;37.356;2023-05-31T03:17:39;98853.50;;;13.30;88.82
58239;BME280;44037;55.638;37.356;2023-05-31T03:20:07;98854.34;;;13.31;89.45
58239;BME280;44037;55.638;37.356;2023-05-31T03:22:35;98847.41;;;13.31;90.00
58239;BME280;44037;55.638;37.356;2023-05-31T03:25:03;98854.31;;;13.34;89.90
58239;BME280;44037;55.638;37.356;2023-05-31T03:27:31;98838.88;;;13.21;89.80
58239;BME280;44037;55.638;37.356;2023-05-31T03:29:59;98835.69;;;13.02;93.74
58239;BME280;44037;55.638;37.356;2023-05-31T03:32:27;98840.44;;;12.68;99.94
58239;BME280;44037;55.638;37.356;2023-05-31T03:34:54;98836.53;;;12.31;100.00
58239;BME280;44037;55.638;37.356;2023-05-31T03:37:21;98852.41;;;12.00;100.00
58239;BME280;44037;55.638;37.356;2023-05-31T03:39:48;98858.66;;;11.74;100.00
58239;BME280;44037;55.638;37.356;2023-05-31T03:42:16;98866.66;;;11.45;100.00
58239;BME280;44037;55.638;37.356;2023-05-31T03:44:43;98862.47;;;11.27;100.00
58239;BME280;44037;55.638;37.356;2023-05-31T03:47:11;98852.19;;;11.11;100.00
58239;BME280;44037;55.638;37.356;2023-05-31T03:49:39;98851.41;;;10.98;100.00
58239;BME280;44037;55.638;37.356;2023-05-31T03:52:06;98864.38;;;10.90;100.00
58239;BME280;44037;55.638;37.356;2023-05-31T03:54:34;98853.22;;;10.79;100.00
58239;BME280;44037;55.638;37.356;2023-05-31T03:57:03;98852.34;;;10.80;100.00
58239;BME280;44037;55.638;37.356;2023-05-31T03:59:30;98854.03;;;10.90;100.00
58239;BME280;44037;55.638;37.356;2023-05-31T04:01:57;98844.50;;;10.91;100.00
58239;BME280;44037;55.638;37.356;2023-05-31T04:04:26;98838.38;;;11.04;100.00
58239;BME280;44037;55.638;37.356;2023-05-31T04:06:53;98852.09;;;11.24;100.00
58239;BME280;44037;55.638;37.356;2023-05-31T04:09:21;98833.88;;;11.37;100.00
58239;BME280;44037;55.638;37.356;2023-05-31T04:11:49;98847.69;;;11.38;100.00
58239;BME280;44037;55.638;37.356;2023-05-31T04:14:16;98849.47;;;11.33;100.00
58239;BME280;44037;55.638;37.356;2023-05-31T04:16:43;98855.53;;;11.32;100.00
58239;BME280;44037;55.638;37.356;2023-05-31T04:19:10;98856.44;;;11.21;100.00
58239;BME280;44037;55.638;37.356;2023-05-31T04:21:39;98853.03;;;11.10;100.00
58239;BME280;44037;55.638;37.356;2023-05-31T04:24:06;98848.78;;;10.97;100.00
58239;BME280;44037;55.638;37.356;2023-05-31T04:26:34;98851.44;;;10.90;100.00
58239;BME280;44037;55.638;37.356;2023-05-31T04:29:01;98853.13;;;10.90;100.00
58239;BME280;44037;55.638;37.356;2023-05-31T04:31:29;98859.19;;;10.90;100.00
58239;BME280;44037;55.638;37.356;2023-05-31T04:33:57;98852.28;;;10.89;100.00
58239;BME280;44037;55.638;37.356;2023-05-31T04:36:26;98853.13;;;10.93;100.00
58239;BME280;44037;55.638;37.356;2023-05-31T04:38:55;98852.25;;;10.97;100.00
58239;BME280;44037;55.638;37.356;2023-05-31T04:41:23;98853.06;;;11.05;100.00
58239;BME280;44037;55.638;37.356;2023-05-31T04:43:51;98857.38;;;11.13;100.00
58239;BME280;44037;55.638;37.356;2023-05-31T04:46:19;98847.84;;;11.10;100.00
58239;BME280;44037;55.638;37.356;2023-05-31T04:48:47;98851.31;;;11.11;100.00
58239;BME280;44037;55.638;37.356;2023-05-31T04:51:16;98853.03;;;11.10;100.00
58239;BME280;44037;55.638;37.356;2023-05-31T04:53:43;98863.41;;;11.13;100.00
58239;BME280;44037;55.638;37.356;2023-05-31T04:56:12;98864.22;;;11.26;100.00
58239;BME280;44037;55.638;37.356;2023-05-31T04:58:40;98874.53;;;11.35;100.00
58239;BME280;44037;55.638;37.356;2023-05-31T05:01:08;98873.63;;;11.41;100.00
58239;BME280;44037;55.638;37.356;2023-05-31T05:03:35;98869.28;;;11.43;100.00
58239;BME280;44037;55.638;37.356;2023-05-31T05:06:11;98869.28;;;11.43;100.00
58239;BME280;44037;55.638;37.356;2023-05-31T05:08:39;98871.00;;;11.44;100.00
58239;BME280;44037;55.638;37.356;2023-05-31T05:11:06;98874.47;;;11.43;100.00
58239;BME280;44037;55.638;37.356;2023-05-31T05:13:36;98877.06;;;11.40;100.00
58239;BME280;44037;55.638;37.356;2023-05-31T05:16:03;98860.66;;;11.38;100.00
58239;BME280;44037;55.638;37.356;2023-05-31T05:18:30;98853.75;;;11.37;100.00
58239;BME280;44037;55.638;37.356;2023-05-31T05:20:58;98851.16;;;11.40;100.00
58239;BME280;44037;55.638;37.356;2023-05-31T05:23:25;98842.53;;;11.35;100.00
58239;BME280;44037;55.638;37.356;2023-05-31T05:25:52;98841.75;;;11.22;100.00
58239;BME280;44037;55.638;37.356;2023-05-31T05:28:20;98834.97;;;11.01;100.00
58239;BME280;44037;55.638;37.356;2023-05-31T05:30:50;98837.63;;;10.88;100.00
58239;BME280;44037;55.638;37.356;2023-05-31T05:33:17;98835.13;;;10.67;100.00
58239;BME280;44037;55.638;37.356;2023-05-31T05:35:44;98826.53;;;10.52;100.00
58239;BME280;44037;55.638;37.356;2023-05-31T05:38:11;98802.41;;;10.45;100.00
58239;BME280;44037;55.638;37.356;2023-05-31T05:40:39;98796.38;;;10.42;100.00
58239;BME280;44037;55.638;37.356;2023-05-31T05:43:06;98801.56;;;10.33;100.00
58239;BME280;44037;55.638;37.356;2023-05-31T05:45:33;98820.56;;;10.25;100.00
58239;BME280;44037;55.638;37.356;2023-05-31T05:48:01;98818.81;;;10.21;100.00
58239;BME280;44037;55.638;37.356;2023-05-31T05:50:29;98814.50;;;10.28;100.00
58239;BME280;44037;55.638;37.356;2023-05-31T05:52:56;98811.03;;;10.34;100.00
58239;BME280;44037;55.638;37.356;2023-05-31T05:55:23;98804.13;;;10.36;100.00
58239;BME280;44037;55.638;37.356;2023-05-31T05:57:50;98796.38;;;10.39;100.00
58239;BME280;44037;55.638;37.356;2023-05-31T06:00:18;98810.19;;;10.44;100.00
58239;BME280;44037;55.638;37.356;2023-05-31T06:02:47;98811.03;;;10.44;100.00
58239;BME280;44037;55.638;37.356;2023-05-31T06:05:15;98810.19;;;10.44;100.00
58239;BME280;44037;55.638;37.356;2023-05-31T06:07:42;98807.56;;;10.50;100.00
58239;BME280;44037;55.638;37.356;2023-05-31T06:10:10;98815.28;;;10.66;100.00
58239;BME280;44037;55.638;37.356;2023-05-31T06:12:37;98814.34;;;10.79;100.00
58239;BME280;44037;55.638;37.356;2023-05-31T06:15:06;98814.25;;;10.93;100.00
58239;BME280;44037;55.638;37.356;2023-05-31T06:17:33;98811.63;;;11.04;100.00
58239;BME280;44037;55.638;37.356;2023-05-31T06:20:01;98799.47;;;11.14;100.00
58239;BME280;44037;55.638;37.356;2023-05-31T06:22:32;98792.56;;;11.13;100.00
58239;BME280;44037;55.638;37.356;2023-05-31T06:24:59;98794.31;;;11.07;100.00
58239;BME280;44037;55.638;37.356;2023-05-31T06:27:26;98797.75;;;11.13;100.00
58239;BME280;44037;55.638;37.356;2023-05-31T06:29:53;98796.78;;;11.25;100.00
58239;BME280;44037;55.638;37.356;2023-05-31T06:32:24;98804.47;;;11.37;100.00
58239;BME280;44037;55.638;37.356;2023-05-31T06:34:51;98801.03;;;11.40;100.00
58239;BME280;44037;55.638;37.356;2023-05-31T06:37:19;98796.75;;;11.31;100.00
58239;BME280;44037;55.638;37.356;2023-05-31T06:39:51;98801.09;;;11.26;100.00
58239;BME280;44037;55.638;37.356;2023-05-31T06:42:19;98796.88;;;11.12;100.00
58239;BME280;44037;55.638;37.356;2023-05-31T06:44:47;98794.31;;;11.06;100.00
58239;BME280;44037;55.638;37.356;2023-05-31T06:47:14;98796.00;;;11.13;100.00
58239;BME280;44037;55.638;37.356;2023-05-31T06:49:42;98788.16;;;11.22;100.00
58239;BME280;44037;55.638;37.356;2023-05-31T06:52:11;98782.91;;;11.30;100.00
58239;BME280;44037;55.638;37.356;2023-05-31T06:54:39;98786.41;;;11.28;100.00
58239;BME280;44037;55.638;37.356;2023-05-31T06:57:07;98780.28;;;11.35;100.00
58239;BME280;44037;55.638;37.356;2023-05-31T06:59:34;98780.06;;;11.63;100.00
58239;BME280;44037;55.638;37.356;2023-05-31T07:02:02;98782.44;;;11.89;100.00
58239;BME280;44037;55.638;37.356;2023-05-31T07:04:29;98783.94;;;12.10;100.00
58239;BME280;44037;55.638;37.356;2023-05-31T07:06:56;98770.78;;;12.29;100.00
58239;BME280;44037;55.638;37.356;2023-05-31T07:09:23;98773.72;;;12.71;100.00
58239;BME280;44037;55.638;37.356;2023-05-31T07:11:50;98767.16;;;13.05;100.00
58239;BME280;44037;55.638;37.356;2023-05-31T07:14:19;98770.22;;;13.32;100.00
58239;BME280;44037;55.638;37.356;2023-05-31T07:16:47;98770.13;;;13.40;100.00
58239;BME280;44037;55.638;37.356;2023-05-31T07:19:15;98773.50;;;13.48;100.00
58239;BME280;44037;55.638;37.356;2023-05-31T07:21:42;98771.25;;;13.76;100.00
58239;BME280;44037;55.638;37.356;2023-05-31T07:24:09;98769.22;;;14.39;100.00
58239;BME280;44037;55.638;37.356;2023-05-31T07:26:36;98768.44;;;15.16;100.00
58239;BME280;44037;55.638;37.356;2023-05-31T07:29:03;98763.47;;;15.05;100.00
58239;BME280;44037;55.638;37.356;2023-05-31T07:31:32;98760.22;;;14.95;100.00
58239;BME280;44037;55.638;37.356;2023-05-31T07:33:59;98755.34;;;14.37;100.00
58239;BME280;44037;55.638;37.356;2023-05-31T07:36:26;98777.78;;;13.50;100.00
58239;BME280;44037;55.638;37.356;2023-05-31T07:38:53;98776.19;;;12.81;100.00
58239;BME280;44037;55.638;37.356;2023-05-31T07:41:21;98795.00;;;12.29;100.00
58239;BME280;44037;55.638;37.356;2023-05-31T07:43:48;98767.84;;;11.74;100.00
58239;BME280;44037;55.638;37.356;2023-05-31T07:46:16;98768.03;;;11.54;100.00
58239;BME280;44037;55.638;37.356;2023-05-31T07:48:44;98780.28;;;11.35;100.00
58239;BME280;44037;55.638;37.356;2023-05-31T07:51:11;98778.75;;;11.07;100.00
58239;BME280;44037;55.638;37.356;2023-05-31T07:53:39;98781.41;;;11.01;100.00
58239;BME280;44037;55.638;37.356;2023-05-31T07:56:06;98783.97;;;11.06;100.00
58239;BME280;44037;55.638;37.356;2023-05-31T07:58:34;98779.56;;;11.14;100.00
58239;BME280;44037;55.638;37.356;2023-05-31T08:01:02;98783.88;;;11.17;100.00
58239;BME280;44037;55.638;37.356;2023-05-31T08:03:29;98778.72;;;11.09;100.00
58239;BME280;44037;55.638;37.356;2023-05-31T08:05:59;98777.97;;;10.99;100.00
58239;BME280;44037;55.638;37.356;2023-05-31T08:08:26;98783.16;;;10.95;100.00
58239;BME280;44037;55.638;37.356;2023-05-31T08:10:53;98776.34;;;10.75;100.00
58239;BME280;44037;55.638;37.356;2023-05-31T08:13:20;98786.78;;;10.61;100.00
58239;BME280;44037;55.638;37.356;2023-05-31T08:15:49;98794.63;;;10.35;100.00
58239;BME280;44037;55.638;37.356;2023-05-31T08:18:17;98788.63;;;10.23;100.00
58239;BME280;44037;55.638;37.356;2023-05-31T08:20:45;98797.28;;;10.10;100.00
58239;BME280;44037;55.638;37.356;2023-05-31T08:23:18;98794.69;;;10.13;100.00
58239;BME280;44037;55.638;37.356;2023-05-31T08:25:45;98799.91;;;9.99;100.00
58239;BME280;44037;55.638;37.356;2023-05-31T08:28:12;98808.53;;;9.95;100.00
58239;BME280;44037;55.638;37.356;2023-05-31T08:30:39;98793.88;;;9.86;100.00
58239;BME280;44037;55.638;37.356;2023-05-31T08:33:07;98799.06;;;9.77;100.00
58239;BME280;44037;55.638;37.356;2023-05-31T08:35:34;98803.38;;;9.82;100.00
58239;BME280;44037;55.638;37.356;2023-05-31T08:38:01;98806.81;;;9.89;100.00
58239;BME280;44037;55.638;37.356;2023-05-31T08:40:30;98804.22;;;9.98;100.00
58239;BME280;44037;55.638;37.356;2023-05-31T08:43:00;98808.53;;;10.01;100.00
58239;BME280;44037;55.638;37.356;2023-05-31T08:45:30;98808.53;;;9.96;100.00
58239;BME280;44037;55.638;37.356;2023-05-31T08:48:08;98818.91;;;9.90;100.00
58239;BME280;44037;55.638;37.356;2023-05-31T08:50:38;98815.47;;;9.68;100.00
58239;BME280;44037;55.638;37.356;2023-05-31T08:53:08;98813.72;;;9.47;100.00
58239;BME280;44037;55.638;37.356;2023-05-31T08:55:37;98824.94;;;9.44;100.00
58239;BME280;44037;55.638;37.356;2023-05-31T08:58:05;98824.09;;;9.36;100.00
58239;BME280;44037;55.638;37.356;2023-05-31T09:00:35;98824.09;;;9.41;100.00
58239;BME280;44037;55.638;37.356;2023-05-31T09:03:05;98818.06;;;9.42;100.00
58239;BME280;44037;55.638;37.356;2023-05-31T09:05:33;98837.00;;;9.47;100.00
58239;BME280;44037;55.638;37.356;2023-05-31T09:08:00;98821.50;;;9.41;100.00
58239;BME280;44037;55.638;37.356;2023-05-31T09:10:28;98821.50;;;9.36;100.00
58239;BME280;44037;55.638;37.356;2023-05-31T09:12:57;98830.09;;;9.36;100.00
58239;BME280;44037;55.638;37.356;2023-05-31T09:15:25;98824.94;;;9.40;100.00
58239;BME280;44037;55.638;37.356;2023-05-31T09:17:55;98824.06;;;9.39;100.00
58239;BME280;44037;55.638;37.356;2023-05-31T09:20:30;98839.59;;;9.31;100.00
58239;BME280;44037;55.638;37.356;2023-05-31T09:23:02;98821.47;;;9.19;100.00
58239;BME280;44037;55.638;37.356;2023-05-31T09:25:42;98829.22;;;9.16;100.00
58239;BME280;44037;55.638;37.356;2023-05-31T09:28:11;98830.09;;;9.18;100.00
58239;BME280;44037;55.638;37.356;2023-05-31T09:30:39;98843.00;;;9.16;100.00
58239;BME280;44037;55.638;37.356;2023-05-31T09:33:06;98830.94;;;9.09;100.00
58239;BME280;44037;55.638;37.356;2023-05-31T09:35:34;98830.94;;;9.04;100.00
58239;BME280;44037;55.638;37.356;2023-05-31T09:38:05;98836.94;;;9.05;100.00
58239;BME280;44037;55.638;37.356;2023-05-31T09:40:33;98827.47;;;9.02;100.00
58239;BME280;44037;55.638;37.356;2023-05-31T09:43:00;98836.97;;;9.06;100.00
58239;BME280;44037;55.638;37.356;2023-05-31T09:45:29;98831.78;;;9.10;100.00
58239;BME280;44037;55.638;37.356;2023-05-31T09:47:56;98837.81;;;9.07;100.00
58239;BME280;44037;55.638;37.356;2023-05-31T09:50:24;98844.69;;;9.05;100.00
58239;BME280;44037;55.638;37.356;2023-05-31T09:52:55;98849.00;;;9.04;100.00
58239;BME280;44037;55.638;37.356;2023-05-31T09:55:24;98843.84;;;9.11;100.00
58239;BME280;44037;55.638;37.356;2023-05-31T09:57:52;98852.47;;;9.13;100.00
58239;BME280;44037;55.638;37.356;2023-05-31T10:00:21;98855.03;;;9.14;100.00
58239;BME280;44037;55.638;37.356;2023-05-31T10:02:51;98864.53;;;9.14;100.00
58239;BME280;44037;55.638;37.356;2023-05-31T10:05:19;98858.50;;;9.16;100.00
58239;BME280;44037;55.638;37.356;2023-05-31T10:07:48;98858.50;;;9.19;100.00
58239;BME280;44037;55.638;37.356;2023-05-31T10:10:15;98874.00;;;9.21;100.00
58239;BME280;44037;55.638;37.356;2023-05-31T10:12:50;98873.16;;;9.16;100.00
58239;BME280;44037;55.638;37.356;2023-05-31T10:15:21;98880.03;;;9.18;100.00
58239;BME280;44037;55.638;37.356;2023-05-31T10:17:54;98876.59;;;9.21;100.00
58239;BME280;44037;55.638;37.356;2023-05-31T10:20:29;98887.78;;;9.18;100.00
58239;BME280;44037;55.638;37.356;2023-05-31T10:22:59;98886.91;;;9.12;100.00
58239;BME280;44037;55.638;37.356;2023-05-31T10:25:38;98892.97;;;9.14;100.00
58239;BME280;44037;55.638;37.356;2023-05-31T10:28:10;98890.38;;;9.14;100.00
58239;BME280;44037;55.638;37.356;2023-05-31T10:30:39;98906.75;;;9.11;100.00
58239;BME280;44037;55.638;37.356;2023-05-31T10:33:12;98902.41;;;9.02;100.00
58239;BME280;44037;55.638;37.356;2023-05-31T10:35:40;98905.84;;;9.01;100.00
58239;BME280;44037;55.638;37.356;2023-05-31T10:38:08;98898.97;;;9.03;100.00
58239;BME280;44037;55.638;37.356;2023-05-31T10:40:40;98893.78;;;9.03;100.00
58239;BME280;44037;55.638;37.356;2023-05-31T10:43:12;98902.41;;;9.05;100.00
58239;BME280;44037;55.638;37.356;2023-05-31T10:45:47;98902.44;;;9.15;100.00
58239;BME280;44037;55.638;37.356;2023-05-31T10:48:23;98904.19;;;9.19;100.00
58239;BME280;44037;55.638;37.356;2023-05-31T10:50:54;98909.38;;;9.37;100.00
58239;BME280;44037;55.638;37.356;2023-05-31T10:53:23;98904.25;;;9.53;100.00
58239;BME280;44037;55.638;37.356;2023-05-31T10:56:00;98904.28;;;9.78;100.00
58239;BME280;44037;55.638;37.356;2023-05-31T10:58:29;98902.56;;;9.95;100.00
58239;BME280;44037;55.638;37.356;2023-05-31T11:00:57;98902.53;;;10.26;100.00
58239;BME280;44037;55.638;37.356;2023-05-31T11:03:26;98899.06;;;10.49;100.00
58239;BME280;44037;55.638;37.356;2023-05-31T11:05:55;98894.69;;;10.74;100.00
58239;BME280;44037;55.638;37.356;2023-05-31T11:08:23;98891.22;;;10.83;100.00
58239;BME280;44037;55.638;37.356;2023-05-31T11:10:50;98890.31;;;10.90;100.00
58239;BME280;44037;55.638;37.356;2023-05-31T11:13:18;98890.25;;;11.01;100.00
58239;BME280;44037;55.638;37.356;2023-05-31T11:15:48;98881.56;;;11.13;100.00
58239;BME280;44037;55.638;37.356;2023-05-31T11:18:25;98883.16;;;11.36;100.00
58239;BME280;44037;55.638;37.356;2023-05-31T11:20:57;98886.50;;;11.57;100.00
58239;BME280;44037;55.638;37.356;2023-05-31T11:23:26;98879.53;;;11.63;100.00
58239;BME280;44037;55.638;37.356;2023-05-31T11:26:09;98883.03;;;11.58;100.00
58239;BME280;44037;55.638;37.356;2023-05-31T11:28:59;98878.75;;;11.47;100.00
58239;BME280;44037;55.638;37.356;2023-05-31T11:31:55;98885.81;;;11.25;100.00
58239;BME280;44037;55.638;37.356;2023-05-31T11:34:25;98898.91;;;10.99;100.00
58239;BME280;44037;55.638;37.356;2023-05-31T11:36:56;98890.34;;;10.75;100.00
58239;BME280;44037;55.638;37.356;2023-05-31T11:39:32;98888.66;;;10.62;100.00
58239;BME280;44037;55.638;37.356;2023-05-31T11:41:59;98901.69;;;10.43;100.00
58239;BME280;44037;55.638;37.356;2023-05-31T11:44:33;98880.97;;;10.27;100.00
58239;BME280;44037;55.638;37.356;2023-05-31T11:47:05;98909.44;;;10.21;100.00
58239;BME280;44037;55.638;37.356;2023-05-31T11:52:23;98904.28;;;9.93;100.00
58239;BME280;44037;55.638;37.356;2023-05-31T11:54:50;98898.22;;;9.85;100.00
58239;BME280;44037;55.638;37.356;2023-05-31T11:57:20;98890.50;;;9.82;100.00
58239;BME280;44037;55.638;37.356;2023-05-31T11:59:48;98893.91;;;9.84;100.00
58239;BME280;44037;55.638;37.356;2023-05-31T12:02:15;98906.00;;;9.88;100.00
58239;BME280;44037;55.638;37.356;2023-05-31T12:04:43;98893.94;;;10.03;100.00
58239;BME280;44037;55.638;37.356;2023-05-31T12:07:12;98902.53;;;10.23;100.00
58239;BME280;44037;55.638;37.356;2023-05-31T12:09:41;98911.19;;;10.19;100.00
58239;BME280;44037;55.638;37.356;2023-05-31T12:12:08;98905.13;;;10.14;100.00
58239;BME280;44037;55.638;37.356;2023-05-31T12:14:36;98897.41;;;10.08;100.00
58239;BME280;44037;55.638;37.356;2023-05-31T12:17:03;98902.56;;;9.94;100.00
58239;BME280;44037;55.638;37.356;2023-05-31T12:19:31;98906.84;;;9.92;100.00
58239;BME280;44037;55.638;37.356;2023-05-31T12:22:01;98908.56;;;9.63;100.00
58239;BME280;44037;55.638;37.356;2023-05-31T12:24:28;98902.56;;;9.75;100.00
58239;BME280;44037;55.638;37.356;2023-05-31T12:26:57;98905.13;;;9.74;100.00
58239;BME280;44037;55.638;37.356;2023-05-31T12:29:27;98901.69;;;9.75;100.00
58239;BME280;44037;55.638;37.356;2023-05-31T12:32:00;98897.38;;;9.63;100.00
58239;BME280;44037;55.638;37.356;2023-05-31T12:34:28;98897.34;;;9.52;100.00
58239;BME280;44037;55.638;37.356;2023-05-31T12:36:56;98905.97;;;9.54;100.00
58239;BME280;44037;55.638;37.356;2023-05-31T12:39:24;98889.56;;;9.40;100.00
58239;BME280;44037;55.638;37.356;2023-05-31T12:41:51;98892.19;;;9.58;100.00
58239;BME280;44037;55.638;37.356;2023-05-31T12:44:21;98892.22;;;9.95;100.00
58239;BME280;44037;55.638;37.356;2023-05-31T12:46:50;98893.03;;;10.14;100.00
58239;BME280;44037;55.638;37.356;2023-05-31T12:49:22;98885.25;;;10.35;100.00
58239;BME280;44037;55.638;37.356;2023-05-31T12:51:56;98878.34;;;10.49;100.00
58239;BME280;44037;55.638;37.356;2023-05-31T12:54:25;98876.59;;;10.60;100.00
58239;BME280;44037;55.638;37.356;2023-05-31T12:56:52;98880.03;;;10.66;100.00
58239;BME280;44037;55.638;37.356;2023-05-31T12:59:21;98874.00;;;10.62;100.00